Time;durP1;ratioP1;P1;durP2;ratioP2;P2;SDS_P1;SDS_P2;PMS_P1;PMS_P2;Temp;Humidity;BMP_temperature;BMP_pressure;BME280_temperature;BME280_humidity;BME280_pressure;Samples;Min_cycle;Max_cycle;Signal;HPM_P1;HPM_P2
2023/05/12 00:00:17;;;;;;;14.60;6.80;;;;;;;12.21;100.00;101508.41;5091675;28;20803;-72
2023/05/12 00:02:43;;;;;;;15.02;7.10;;;;;;;12.20;100.00;101509.41;5091530;28;20043;-72
2023/05/12 00:05:09;;;;;;;14.75;6.43;;;;;;;12.13;100.00;101505.00;5090177;28;20043;-71
2023/05/12 00:07:35;;;;;;;11.65;6.22;;;;;;;11.98;100.00;101511.25;5091410;28;20472;-71
2023/05/12 00:10:02;;;;;;;13.25;6.05;;;;;;;11.91;100.00;101502.31;5091427;28;20060;-71
2023/05/12 00:12:27;;;;;;;12.07;5.25;;;;;;;11.82;100.00;101509.59;5091409;28;20125;-71
2023/05/12 00:14:53;;;;;;;11.18;5.65;;;;;;;11.84;100.00;101512.06;5090139;28;20032;-72
2023/05/12 00:17:18;;;;;;;10.88;4.88;;;;;;;11.77;100.00;101506.66;5091211;28;20057;-72
2023/05/12 00:19:43;;;;;;;13.52;5.53;;;;;;;11.78;100.00;101505.63;5091321;28;20099;-72
2023/05/12 00:22:10;;;;;;;10.25;5.30;;;;;;;11.73;100.00;101494.69;5091186;28;20475;-72
2023/05/12 00:24:35;;;;;;;13.10;5.38;;;;;;;11.77;100.00;101501.31;5091379;28;20047;-72
2023/05/12 00:27:01;;;;;;;11.90;5.25;;;;;;;11.81;100.00;101507.13;5089963;28;20032;-72
2023/05/12 00:29:26;;;;;;;13.77;6.15;;;;;;;11.82;100.00;101503.44;5091056;28;20028;-72
2023/05/12 00:31:51;;;;;;;11.27;5.32;;;;;;;11.80;100.00;101503.63;5091125;28;20580;-72
2023/05/12 00:34:17;;;;;;;13.27;6.93;;;;;;;11.80;100.00;101500.94;5091199;28;20489;-72
2023/05/12 00:36:42;;;;;;;10.98;5.22;;;;;;;11.79;100.00;101506.50;5089754;28;20032;-72
2023/05/12 00:39:08;;;;;;;13.75;6.75;;;;;;;11.78;100.00;101500.28;5090648;28;20060;-72
2023/05/12 00:41:34;;;;;;;9.85;5.82;;;;;;;11.75;100.00;101499.84;5090812;28;20034;-72
2023/05/12 00:43:59;;;;;;;11.10;5.72;;;;;;;11.72;100.00;101502.91;5089527;28;20040;-72
2023/05/12 00:46:26;;;;;;;14.85;6.78;;;;;;;11.70;100.00;101495.06;5090740;28;20093;-72
2023/05/12 00:48:51;;;;;;;12.63;6.38;;;;;;;11.72;100.00;101497.56;5090599;28;20024;-72
2023/05/12 00:51:17;;;;;;;12.65;6.43;;;;;;;11.67;100.00;101500.78;5090686;28;20899;-72
2023/05/12 00:53:42;;;;;;;13.00;6.10;;;;;;;11.66;100.00;101498.31;5090754;28;20034;-72
2023/05/12 00:56:09;;;;;;;14.77;7.22;;;;;;;11.65;100.00;101499.31;5090708;28;20028;-72
2023/05/12 00:58:34;;;;;;;14.95;7.40;;;;;;;11.61;100.00;101491.69;5090586;28;20605;-72
2023/05/12 01:00:59;;;;;;;14.98;7.20;;;;;;;11.60;100.00;101486.53;5090358;28;20119;-72
2023/05/12 01:03:25;;;;;;;14.88;7.25;;;;;;;11.59;100.00;101487.56;5090505;28;20479;-72
2023/05/12 01:06:05;;;;;;;18.17;8.77;;;;;;;11.54;100.00;101482.75;5088976;28;20127;-72
2023/05/12 01:08:32;;;;;;;16.95;8.20;;;;;;;11.52;100.00;101478.63;5090280;28;20087;-72
2023/05/12 01:10:57;;;;;;;14.98;7.72;;;;;;;11.55;100.00;101481.78;5090369;28;20051;-72
2023/05/12 01:13:22;;;;;;;17.77;7.57;;;;;;;11.56;100.00;101474.56;5090257;28;20422;-72
2023/05/12 01:15:51;;;;;;;16.13;7.15;;;;;;;11.53;100.00;101473.09;5090182;28;20486;-72
2023/05/12 01:18:18;;;;;;;15.55;8.00;;;;;;;11.57;100.00;101478.88;5090086;28;20559;-72
2023/05/12 01:20:46;;;;;;;15.48;7.47;;;;;;;11.56;100.00;101474.56;5090195;28;20038;-72
2023/05/12 01:23:15;;;;;;;16.08;8.25;;;;;;;11.56;100.00;101472.72;5090130;28;20027;-72
2023/05/12 01:25:43;;;;;;;16.05;7.78;;;;;;;11.55;100.00;101475.56;5090164;28;20047;-72
2023/05/12 01:28:09;;;;;;;15.95;8.40;;;;;;;11.54;100.00;101469.41;5090039;28;20020;-72
2023/05/12 01:30:36;;;;;;;14.18;6.75;;;;;;;11.51;100.00;101471.63;5090026;28;20383;-72
2023/05/12 01:33:02;;;;;;;17.17;8.60;;;;;;;11.51;100.00;101472.47;5090045;28;20107;-72
2023/05/12 01:35:27;;;;;;;14.15;7.28;;;;;;;11.51;100.00;101474.31;5089864;28;20260;-72
2023/05/12 01:37:52;;;;;;;14.57;7.07;;;;;;;11.50;100.00;101460.13;5089977;28;20094;-72
2023/05/12 01:40:18;;;;;;;15.50;6.57;;;;;;;11.47;100.00;101463.16;5089872;28;20102;-71
2023/05/12 01:42:44;;;;;;;13.70;6.53;;;;;;;11.43;100.00;101456.53;5088391;28;20391;-71
2023/05/12 01:45:10;;;;;;;13.27;7.40;;;;;;;11.40;100.00;101462.25;5089884;28;20034;-71
2023/05/12 01:47:35;;;;;;;10.82;5.95;;;;;;;11.36;100.00;101456.44;5089615;28;20032;-71
2023/05/12 01:50:00;;;;;;;13.10;5.78;;;;;;;11.32;100.00;101460.53;5089735;28;20028;-71
2023/05/12 01:52:27;;;;;;;10.95;5.50;;;;;;;11.28;100.00;101467.25;5089771;28;20117;-72
2023/05/12 01:54:52;;;;;;;10.52;5.07;;;;;;;11.21;100.00;101460.16;5089578;28;20732;-72
2023/05/12 01:57:18;;;;;;;10.65;5.15;;;;;;;11.13;100.00;101455.75;5089643;28;20054;-71
2023/05/12 01:59:43;;;;;;;12.75;5.15;;;;;;;11.11;100.00;101461.28;5089687;28;20055;-72
2023/05/12 02:02:08;;;;;;;9.00;5.20;;;;;;;11.10;100.00;101450.78;5088349;28;20024;-72
2023/05/12 02:04:34;;;;;;;9.77;4.60;;;;;;;11.04;100.00;101448.84;5089515;28;20548;-72
2023/05/12 02:07:00;;;;;;;10.10;5.30;;;;;;;11.02;100.00;101451.69;5088157;28;20032;-71
2023/05/12 02:09:26;;;;;;;10.73;5.03;;;;;;;10.97;100.00;101454.91;5089551;28;20052;-72
2023/05/12 02:11:51;;;;;;;10.52;4.93;;;;;;;10.94;100.00;101449.94;5089492;28;20031;-72
2023/05/12 02:14:16;;;;;;;9.75;4.75;;;;;;;10.96;100.00;101450.59;5089435;28;20032;-72
2023/05/12 02:16:42;;;;;;;10.85;4.90;;;;;;;10.95;100.00;101442.75;5088710;28;20153;-71
2023/05/12 02:19:07;;;;;;;7.32;4.90;;;;;;;10.96;100.00;101447.94;5089525;28;20028;-71
2023/05/12 02:21:33;;;;;;;9.85;3.90;;;;;;;10.95;100.00;101440.94;5089338;28;20032;-71
2023/05/12 02:23:58;;;;;;;6.65;3.53;;;;;;;10.92;100.00;101441.28;5088252;28;20475;-71
2023/05/12 02:26:23;;;;;;;7.20;4.18;;;;;;;10.91;100.00;101444.97;5089275;28;20450;-70
2023/05/12 02:28:49;;;;;;;7.65;3.83;;;;;;;10.87;100.00;101432.19;5089209;28;20611;-71
2023/05/12 02:31:14;;;;;;;6.55;3.60;;;;;;;10.86;100.00;101427.88;5089181;28;20020;-70
2023/05/12 02:33:39;;;;;;;7.40;3.53;;;;;;;10.87;100.00;101424.19;5089130;28;20032;-70
2023/05/12 02:36:05;;;;;;;5.57;3.05;;;;;;;10.81;100.00;101427.59;5089191;28;20479;-70
2023/05/12 02:38:30;;;;;;;6.75;2.80;;;;;;;10.79;100.00;101421.59;5089199;28;20387;-71
2023/05/12 02:40:56;;;;;;;6.55;3.92;;;;;;;10.66;100.00;101399.09;5089106;28;20116;-71
2023/05/12 02:43:21;;;;;;;7.63;3.30;;;;;;;10.78;100.00;101417.28;5089073;28;20032;-70
2023/05/12 02:45:47;;;;;;;7.80;4.22;;;;;;;10.79;100.00;101416.28;5087833;28;20119;-71
2023/05/12 02:48:12;;;;;;;6.05;2.97;;;;;;;10.73;100.00;101408.00;5088932;28;20067;-71
2023/05/12 02:50:37;;;;;;;5.45;2.80;;;;;;;10.70;100.00;101413.69;5088994;28;20070;-70
2023/05/12 02:53:03;;;;;;;6.25;3.08;;;;;;;10.68;100.00;101406.88;5089049;28;20031;-70
2023/05/12 02:55:29;;;;;;;7.20;3.28;;;;;;;10.67;100.00;101402.56;5088945;28;20659;-70
2023/05/12 02:57:54;;;;;;;5.85;3.00;;;;;;;10.65;100.00;101402.75;5088983;28;20043;-70
2023/05/12 03:00:20;;;;;;;9.75;3.60;;;;;;;10.67;100.00;101413.25;5087633;28;20113;-70
2023/05/12 03:02:45;;;;;;;5.93;2.55;;;;;;;10.65;100.00;101408.09;5088946;28;20069;-71
2023/05/12 03:05:11;;;;;;;6.15;3.13;;;;;;;10.67;100.00;101407.91;5088969;28;20039;-70
2023/05/12 03:07:36;;;;;;;6.47;3.33;;;;;;;10.64;100.00;101400.28;5088869;28;20025;-70
2023/05/12 03:10:02;;;;;;;5.63;2.92;;;;;;;10.65;100.00;101404.59;5088795;28;20093;-70
2023/05/12 03:12:28;;;;;;;6.43;3.38;;;;;;;10.65;100.00;101397.41;5087493;28;20038;-70
2023/05/12 03:14:55;;;;;;;6.85;3.47;;;;;;;10.65;100.00;101401.94;5088847;28;20020;-70
2023/05/12 03:17:20;;;;;;;11.18;4.55;;;;;;;10.65;100.00;101402.75;5088715;28;20391;-71
2023/05/12 03:19:45;;;;;;;8.98;4.35;;;;;;;10.63;100.00;101395.94;5088810;28;20028;-71
2023/05/12 03:22:11;;;;;;;12.65;4.97;;;;;;;10.68;100.00;101398.88;5088636;28;20028;-70
2023/05/12 03:24:37;;;;;;;6.80;3.28;;;;;;;10.67;100.00;101397.25;5087330;28;20585;-70
2023/05/12 03:27:02;;;;;;;9.07;4.57;;;;;;;10.66;100.00;101398.22;5088698;28;20066;-70
2023/05/12 03:29:28;;;;;;;12.25;5.50;;;;;;;10.68;100.00;101394.38;5090797;28;20036;-71
2023/05/12 03:31:53;;;;;;;12.02;4.88;;;;;;;10.67;100.00;101387.41;5092288;28;20028;-70
2023/05/12 03:34:18;;;;;;;15.40;5.03;;;;;;;10.68;100.00;101391.72;5092183;28;20518;-70
2023/05/12 03:36:44;;;;;;;15.82;5.25;;;;;;;10.67;100.00;101383.91;5092147;28;20506;-71
2023/05/12 03:39:11;;;;;;;10.82;4.68;;;;;;;10.68;100.00;101386.38;5092064;28;20051;-70
2023/05/12 03:41:37;;;;;;;14.02;5.32;;;;;;;10.67;100.00;101384.72;5092084;28;20085;-70
2023/05/12 03:44:04;;;;;;;14.57;6.40;;;;;;;10.67;100.00;101378.56;5091623;28;20055;-70
2023/05/12 03:46:30;;;;;;;15.80;6.50;;;;;;;10.68;100.00;101389.03;5091971;28;20479;-70
2023/05/12 03:48:56;;;;;;;14.70;6.00;;;;;;;10.68;100.00;101375.69;5091880;28;20037;-70
2023/05/12 03:51:21;;;;;;;16.65;6.63;;;;;;;10.68;100.00;101374.88;5091849;28;20086;-70
2023/05/12 03:53:46;;;;;;;15.82;6.32;;;;;;;10.69;100.00;101373.88;5091721;28;20360;-70
2023/05/12 03:56:14;;;;;;;16.85;6.97;;;;;;;10.68;100.00;101373.03;5091892;28;20122;-70
2023/05/12 03:58:39;;;;;;;16.70;6.90;;;;;;;10.69;100.00;101384.56;5091820;28;20024;-70
2023/05/12 04:01:05;;;;;;;18.90;7.88;;;;;;;10.69;100.00;101379.22;5091573;28;20039;-70
2023/05/12 04:03:30;;;;;;;16.60;7.03;;;;;;;10.70;100.00;101368.34;5091696;28;20028;-70
2023/05/12 04:06:03;;;;;;;16.92;7.10;;;;;;;10.71;100.00;101374.50;5091685;28;20063;-70
2023/05/12 04:08:29;;;;;;;19.67;7.78;;;;;;;10.71;100.00;101375.31;5091267;28;20044;-70
2023/05/12 04:10:58;;;;;;;22.75;8.23;;;;;;;10.74;100.00;101374.13;5090287;28;20093;-70
2023/05/12 04:13:24;;;;;;;20.85;8.70;;;;;;;10.73;100.00;101373.31;5091499;28;20024;-70
2023/05/12 04:15:50;;;;;;;23.65;10.73;;;;;;;10.76;100.00;101366.78;5091047;28;20352;-70
2023/05/12 04:18:16;;;;;;;24.65;9.73;;;;;;;10.78;100.00;101377.28;5091633;28;20035;-70
2023/05/12 04:20:42;;;;;;;24.35;9.18;;;;;;;10.78;100.00;101375.44;5091349;28;20057;-71
2023/05/12 04:23:07;;;;;;;26.17;10.80;;;;;;;10.79;100.00;101387.75;5091206;28;20028;-70
2023/05/12 04:25:33;;;;;;;24.20;11.50;;;;;;;10.81;100.00;101375.06;5091273;28;20115;-70
2023/05/12 04:27:58;;;;;;;25.73;11.38;;;;;;;10.84;100.00;101379.19;5091240;28;20070;-71
2023/05/12 04:30:24;;;;;;;28.48;10.10;;;;;;;10.80;100.00;101370.75;5089802;28;20059;-70
2023/05/12 04:32:49;;;;;;;24.05;11.68;;;;;;;10.87;100.00;101377.00;5091181;28;20024;-70
2023/05/12 04:35:14;;;;;;;25.52;9.88;;;;;;;10.90;100.00;101381.97;5091006;28;20036;-70
2023/05/12 04:37:40;;;;;;;29.25;12.77;;;;;;;10.93;100.00;101376.25;5091023;28;20081;-70
2023/05/12 04:40:07;;;;;;;29.25;12.65;;;;;;;10.94;100.00;101372.56;5090410;28;20491;-70
2023/05/12 04:42:33;;;;;;;27.15;13.25;;;;;;;10.96;100.00;101378.53;5089343;28;20039;-70
2023/05/12 04:44:58;;;;;;;27.45;11.32;;;;;;;10.96;100.00;101369.72;5090309;28;20382;-70
2023/05/12 04:47:24;;;;;;;28.10;13.75;;;;;;;10.94;100.00;101372.56;5090660;28;20073;-70
2023/05/12 04:49:49;;;;;;;29.60;13.85;;;;;;;10.99;100.00;101371.19;5089307;28;20513;-70
2023/05/12 04:52:14;;;;;;;30.17;12.65;;;;;;;11.02;100.00;101376.97;5090489;28;20028;-70
2023/05/12 04:54:40;;;;;;;29.25;14.45;;;;;;;11.05;100.00;101386.44;5090435;28;20028;-70
2023/05/12 04:57:05;;;;;;;27.08;12.05;;;;;;;11.07;100.00;101379.91;5090380;28;20063;-70
2023/05/12 04:59:31;;;;;;;29.90;12.55;;;;;;;11.09;100.00;101388.56;5090396;28;20031;-70
2023/05/12 05:01:56;;;;;;;28.67;16.40;;;;;;;11.09;100.00;101382.41;5090098;28;20027;-72
2023/05/12 05:04:22;;;;;;;32.58;15.15;;;;;;;11.13;100.00;101389.00;5090330;28;20028;-72
2023/05/12 05:06:47;;;;;;;30.33;14.00;;;;;;;11.19;100.00;101398.94;5089941;28;20036;-71
2023/05/12 05:09:12;;;;;;;33.38;14.60;;;;;;;11.22;100.00;101395.06;5090030;28;20079;-71
2023/05/12 05:11:38;;;;;;;29.15;13.77;;;;;;;11.24;100.00;101407.22;5088539;28;20062;-70
2023/05/12 05:14:03;;;;;;;29.65;13.98;;;;;;;11.27;100.00;101406.03;5089962;28;20076;-71
2023/05/12 05:16:28;;;;;;;33.25;15.00;;;;;;;11.30;100.00;101408.31;5090030;28;20112;-70
2023/05/12 05:18:54;;;;;;;31.83;12.77;;;;;;;11.32;100.00;101401.78;5090202;28;20032;-70
2023/05/12 05:21:19;;;;;;;35.67;16.70;;;;;;;11.39;100.00;101413.34;5088203;28;20032;-70
2023/05/12 05:23:45;;;;;;;34.97;17.13;;;;;;;11.40;100.00;101411.53;5087556;28;20056;-71
2023/05/12 05:26:10;;;;;;;31.92;15.65;;;;;;;11.52;100.00;101422.53;5081704;28;20044;-70
2023/05/12 05:28:38;;;;;;;35.75;18.13;;;;;;;11.47;100.00;101407.06;5083955;28;20028;-71
2023/05/12 05:31:04;;;;;;;34.30;15.65;;;;;;;11.59;100.00;101423.44;5083506;28;20553;-70
2023/05/12 05:33:30;;;;;;;31.60;15.27;;;;;;;11.64;100.00;101426.38;5083651;28;20020;-73
2023/05/12 05:35:55;;;;;;;33.45;15.30;;;;;;;11.68;100.00;101432.16;5082396;28;20077;-72
2023/05/12 05:38:21;;;;;;;32.15;14.95;;;;;;;11.72;100.00;101426.25;5083508;28;20024;-73
2023/05/12 05:40:46;;;;;;;34.55;17.83;;;;;;;11.81;100.00;101432.28;5083695;28;20123;-73
2023/05/12 05:43:11;;;;;;;27.30;14.00;;;;;;;11.86;100.00;101437.91;5082005;28;20032;-73
2023/05/12 05:45:37;;;;;;;30.63;16.40;;;;;;;11.93;100.00;101438.81;5083359;28;20024;-71
2023/05/12 05:48:02;;;;;;;28.67;13.73;;;;;;;11.98;100.00;101441.75;5081475;28;20062;-71
2023/05/12 05:50:27;;;;;;;32.95;14.63;;;;;;;12.06;100.00;101441.59;5081782;28;20027;-71
2023/05/12 05:52:54;;;;;;;33.72;16.08;;;;;;;12.25;100.00;101445.47;5082940;28;20075;-71
2023/05/12 05:55:19;;;;;;;34.55;16.42;;;;;;;12.41;100.00;101454.25;5082423;28;20028;-72
2023/05/12 05:57:45;;;;;;;36.60;17.73;;;;;;;12.58;100.00;101460.16;5083354;28;20038;-72
2023/05/12 06:00:11;;;;;;;31.17;17.65;;;;;;;12.76;100.00;101454.28;5082225;28;20032;-72
2023/05/12 06:02:36;;;;;;;37.70;16.58;;;;;;;12.92;100.00;101459.34;5082885;28;20036;-71
2023/05/12 06:05:02;;;;;;;27.58;16.63;;;;;;;13.00;100.00;101456.50;5082035;28;20059;-75
2023/05/12 06:07:27;;;;;;;33.45;15.68;;;;;;;13.11;100.00;101458.59;5082877;28;20019;-72
2023/05/12 06:09:53;;;;;;;32.55;16.42;;;;;;;13.22;100.00;101472.47;5083070;28;20457;-73
2023/05/12 06:12:19;;;;;;;29.33;15.25;;;;;;;13.31;100.00;101472.13;5082340;28;20046;-72
2023/05/12 06:14:44;;;;;;;28.52;15.40;;;;;;;13.36;100.00;101469.69;5082806;28;20028;-72
2023/05/12 06:17:10;;;;;;;27.38;15.55;;;;;;;13.43;100.00;101480.41;5081763;28;20028;-72
2023/05/12 06:19:35;;;;;;;29.33;15.93;;;;;;;13.49;100.00;101489.50;5082379;28;20028;-71
2023/05/12 06:22:01;;;;;;;29.48;13.30;;;;;;;13.45;100.00;101481.06;5081945;28;20064;-76
2023/05/12 06:24:26;;;;;;;26.33;14.38;;;;;;;13.50;100.00;101492.00;5082464;28;20060;-71
2023/05/12 06:26:52;;;;;;;22.35;13.48;;;;;;;13.54;100.00;101495.09;5083119;28;20132;-71
2023/05/12 06:29:18;;;;;;;22.55;12.77;;;;;;;13.62;100.00;101499.44;5083209;28;20020;-71
2023/05/12 06:31:44;;;;;;;25.73;14.68;;;;;;;13.72;100.00;101511.44;5082745;28;20032;-71
2023/05/12 06:34:09;;;;;;;23.67;13.48;;;;;;;13.76;100.00;101506.53;5082266;28;20032;-71
2023/05/12 06:36:34;;;;;;;23.60;12.55;;;;;;;13.70;100.00;101497.44;5081657;28;20032;-71
2023/05/12 06:39:00;;;;;;;26.02;15.48;;;;;;;13.76;100.00;101501.16;5082809;28;20101;-71
2023/05/12 06:41:25;;;;;;;29.48;15.77;;;;;;;13.73;100.00;101512.28;5082658;28;20073;-71
2023/05/12 06:43:51;;;;;;;24.67;14.25;;;;;;;13.78;100.00;101516.03;5082563;28;20039;-71
2023/05/12 06:46:17;;;;;;;24.73;14.88;;;;;;;13.87;100.00;101515.84;5081875;28;20159;-71
2023/05/12 06:48:42;;;;;;;22.05;11.02;;;;;;;14.02;100.00;101517.31;5083210;28;20056;-72
2023/05/12 06:51:08;;;;;;;25.42;12.32;;;;;;;14.18;100.00;101524.16;5081308;28;20050;-72
2023/05/12 06:53:36;;;;;;;21.38;11.27;;;;;;;14.16;100.00;101517.34;5082800;28;20028;-72
2023/05/12 06:56:03;;;;;;;21.17;11.68;;;;;;;14.32;100.00;101527.69;5081802;28;20380;-72
2023/05/12 06:58:28;;;;;;;22.70;12.75;;;;;;;14.45;100.00;101534.91;5082917;28;20036;-72
2023/05/12 07:00:54;;;;;;;21.20;11.07;;;;;;;14.57;100.00;101535.19;5082703;28;20026;-73
2023/05/12 07:03:19;;;;;;;18.67;10.55;;;;;;;14.60;100.00;101534.75;5084385;28;20752;-72
2023/05/12 07:05:45;;;;;;;20.95;11.57;;;;;;;14.56;100.00;101539.69;5086318;28;20118;-72
2023/05/12 07:08:10;;;;;;;20.25;11.40;;;;;;;14.49;100.00;101544.22;5086820;28;20463;-72
2023/05/12 07:10:36;;;;;;;20.17;12.32;;;;;;;14.44;100.00;101530.59;5075994;28;20100;-73
2023/05/12 07:13:02;;;;;;;19.08;11.18;;;;;;;14.53;100.00;101544.66;5084918;28;20020;-72
2023/05/12 07:15:27;;;;;;;20.75;10.90;;;;;;;14.64;100.00;101535.97;5085485;28;20463;-72
2023/05/12 07:17:54;;;;;;;17.00;9.60;;;;;;;14.76;100.00;101536.19;5084692;28;20132;-72
2023/05/12 07:20:20;;;;;;;17.30;9.13;;;;;;;14.81;100.00;101542.59;5086238;28;20032;-72
2023/05/12 07:22:45;;;;;;;15.32;7.68;;;;;;;14.79;100.00;101535.78;5085461;28;20028;-72
2023/05/12 07:25:11;;;;;;;13.30;7.80;;;;;;;14.82;100.00;101546.09;5085886;28;20390;-72
2023/05/12 07:27:37;;;;;;;20.55;9.23;;;;;;;14.84;100.00;101535.97;5085823;28;20116;-72
2023/05/12 07:30:07;;;;;;;14.25;7.55;;;;;;;14.88;100.00;101548.78;5086156;28;20481;-72
2023/05/12 07:32:32;;;;;;;14.65;7.45;;;;;;;14.92;100.00;101553.75;5086258;28;20027;-73
2023/05/12 07:34:58;;;;;;;17.38;9.20;;;;;;;15.00;100.00;101559.72;5085802;28;20861;-73
2023/05/12 07:37:23;;;;;;;12.73;7.57;;;;;;;15.09;100.00;101563.00;5085045;28;20054;-73
2023/05/12 07:39:48;;;;;;;16.30;8.00;;;;;;;15.18;100.00;101558.25;5085363;28;20077;-73
2023/05/12 07:42:14;;;;;;;15.95;7.40;;;;;;;15.26;100.00;101560.72;5086030;28;20027;-73
2023/05/12 07:44:40;;;;;;;15.05;8.00;;;;;;;15.23;100.00;101556.59;5085404;28;20043;-72
2023/05/12 07:47:05;;;;;;;10.77;7.28;;;;;;;15.26;100.00;101558.03;5085703;28;20042;-70
2023/05/12 07:49:31;;;;;;;11.93;7.75;;;;;;;15.32;100.00;101549.94;5085458;28;20467;-73
2023/05/12 07:51:56;;;;;;;12.88;7.60;;;;;;;15.48;100.00;101561.25;5084683;28;20028;-73
2023/05/12 07:54:22;;;;;;;12.80;6.85;;;;;;;15.54;100.00;101558.56;5085299;28;20035;-71
2023/05/12 07:56:47;;;;;;;12.02;6.53;;;;;;;15.59;100.00;101576.75;5084511;28;20551;-71
2023/05/12 07:59:13;;;;;;;14.35;7.57;;;;;;;15.70;100.00;101565.38;5085632;28;20060;-71
2023/05/12 08:01:39;;;;;;;11.63;7.28;;;;;;;16.02;100.00;101570.81;5085617;28;20507;-73
2023/05/12 08:04:05;;;;;;;11.13;7.35;;;;;;;16.03;100.00;101575.13;5091151;28;20030;-73
2023/05/12 08:06:31;;;;;;;10.45;6.45;;;;;;;16.14;100.00;101576.34;5090601;28;20463;-71
2023/05/12 08:08:57;;;;;;;11.10;6.93;;;;;;;17.38;99.26;101571.19;5089034;28;20060;-71
2023/05/12 08:11:23;;;;;;;8.45;5.53;;;;;;;18.28;90.40;101560.50;5090659;28;20036;-71
2023/05/12 08:13:48;;;;;;;9.38;4.65;;;;;;;19.12;85.93;101562.28;5105234;28;20578;-71
2023/05/12 08:16:14;;;;;;;8.27;5.03;;;;;;;18.76;84.38;101572.28;5090235;28;20024;-71
2023/05/12 08:18:39;;;;;;;7.05;4.30;;;;;;;17.93;85.40;101571.19;5090203;28;20062;-71
2023/05/12 08:21:05;;;;;;;6.93;4.53;;;;;;;17.37;87.28;101580.31;5090338;28;20036;-73
2023/05/12 08:23:30;;;;;;;7.55;4.07;;;;;;;17.19;89.17;101584.66;5090210;28;20032;-72
2023/05/12 08:25:55;;;;;;;7.00;4.57;;;;;;;17.66;89.02;101584.16;5090442;28;20432;-72
2023/05/12 08:28:21;;;;;;;6.25;4.03;;;;;;;17.93;87.47;101580.09;5090703;28;20483;-72
2023/05/12 08:30:46;;;;;;;7.80;4.43;;;;;;;17.75;86.04;101590.91;5091019;28;20046;-73
2023/05/12 08:33:12;;;;;;;7.57;4.10;;;;;;;17.62;88.95;101577.56;5091033;28;20039;-72
2023/05/12 08:35:37;;;;;;;6.97;4.45;;;;;;;17.89;85.76;101600.53;5090959;28;20032;-72
2023/05/12 08:38:03;;;;;;;5.93;4.13;;;;;;;18.42;82.25;101592.72;5090856;28;20031;-72
2023/05/12 08:40:30;;;;;;;7.60;4.75;;;;;;;18.47;83.04;101599.09;5091194;28;20399;-72
2023/05/12 08:43:17;;;;;;;6.20;4.45;;;;;;;18.49;85.99;101588.88;5090700;28;20109;-72
2023/05/12 08:45:43;;;;;;;6.85;4.55;;;;;;;18.37;84.81;101596.94;5089839;28;20089;-72
2023/05/12 08:48:10;;;;;;;10.38;4.90;;;;;;;18.01;84.93;101597.03;5090583;28;20032;-72
2023/05/12 08:50:37;;;;;;;5.57;4.18;;;;;;;18.04;89.45;101586.59;5090816;28;20085;-72
2023/05/12 08:53:05;;;;;;;9.80;4.78;;;;;;;18.10;87.13;101606.47;5090622;28;20525;-72
2023/05/12 08:55:33;;;;;;;6.88;4.43;;;;;;;18.22;89.14;101601.94;5090703;28;20123;-72
2023/05/12 08:58:00;;;;;;;10.23;5.47;;;;;;;18.29;86.44;101599.97;5090406;28;20110;-72
2023/05/12 09:00:27;;;;;;;4.80;3.78;;;;;;;18.42;83.74;101604.38;5090569;28;20659;-72
2023/05/12 09:02:54;;;;;;;6.47;4.15;;;;;;;18.68;86.54;101595.03;5090465;28;20031;-72
2023/05/12 09:05:20;;;;;;;4.85;3.58;;;;;;;18.66;82.49;101620.63;5090493;28;20032;-72
2023/05/12 09:07:48;;;;;;;6.50;3.55;;;;;;;18.28;82.34;101609.13;5090437;28;20024;-73
2023/05/12 09:10:18;;;;;;;4.82;3.55;;;;;;;18.11;83.23;101610.81;5090241;28;20064;-72
2023/05/12 09:12:46;;;;;;;7.00;3.42;;;;;;;18.08;82.41;101605.88;5090284;28;20028;-72
2023/05/12 09:15:18;;;;;;;6.60;3.25;;;;;;;18.05;83.58;101611.72;5089030;28;20379;-72
2023/05/12 09:17:44;;;;;;;5.53;3.03;;;;;;;18.00;85.26;101604.31;5089920;28;20090;-72
2023/05/12 09:20:11;;;;;;;6.82;3.50;;;;;;;17.99;85.87;101608.06;5105280;28;20486;-71
2023/05/12 09:22:38;;;;;;;4.00;3.03;;;;;;;17.94;83.01;101622.22;5088646;28;20040;-72
2023/05/12 09:25:20;;;;;;;5.55;3.70;;;;;;;17.79;81.67;101612.84;5089861;28;20040;-72
2023/05/12 09:27:47;;;;;;;5.40;3.63;;;;;;;17.74;85.01;101616.25;5090216;28;20113;-72
2023/05/12 09:30:13;;;;;;;5.40;3.08;;;;;;;17.66;82.44;101616.53;5089868;28;20028;-72
2023/05/12 09:32:38;;;;;;;6.55;3.72;;;;;;;17.70;85.06;101609.63;5089857;28;20038;-72
2023/05/12 09:35:05;;;;;;;4.93;3.35;;;;;;;17.71;83.31;101614.81;5089832;28;20020;-71
2023/05/12 09:37:32;;;;;;;6.68;3.88;;;;;;;17.68;85.84;101609.88;5089682;28;20457;-72
2023/05/12 09:40:03;;;;;;;5.18;3.38;;;;;;;17.60;83.65;101617.44;5089931;28;20505;-72
2023/05/12 09:42:30;;;;;;;7.80;4.75;;;;;;;17.52;83.07;101624.75;5088446;28;20178;-71
2023/05/12 09:45:00;;;;;;;5.30;3.42;;;;;;;17.44;85.19;101629.63;5089852;28;20546;-72
2023/05/12 09:47:28;;;;;;;4.88;3.63;;;;;;;17.65;87.97;101617.56;5089638;28;20028;-71
2023/05/12 09:49:55;;;;;;;4.75;3.30;;;;;;;17.69;81.91;101610.69;5089664;28;20557;-73
2023/05/12 09:52:21;;;;;;;6.50;3.75;;;;;;;17.77;82.17;101626.56;5089257;28;20099;-72
2023/05/12 09:54:47;;;;;;;5.25;3.38;;;;;;;17.84;79.73;101629.22;5089491;28;20111;-72
2023/05/12 09:57:15;;;;;;;4.35;3.03;;;;;;;17.98;79.04;101629.91;5089505;28;20032;-72
2023/05/12 09:59:42;;;;;;;5.85;3.25;;;;;;;17.94;78.83;101627.63;5089551;28;20032;-72
2023/05/12 10:02:08;;;;;;;6.25;3.75;;;;;;;17.92;77.65;101640.53;5089419;28;20032;-72
2023/05/12 10:04:44;;;;;;;7.10;3.72;;;;;;;17.93;79.76;101635.97;5089428;28;20047;-72
2023/05/12 10:07:12;;;;;;;6.90;4.30;;;;;;;18.13;82.12;101641.09;5089496;28;20528;-73
2023/05/12 10:09:41;;;;;;;5.55;3.35;;;;;;;18.18;77.06;101634.00;5089382;28;20523;-72
2023/05/12 10:12:07;;;;;;;4.93;3.15;;;;;;;18.14;78.86;101631.97;5089391;28;20043;-72
2023/05/12 10:14:34;;;;;;;4.68;3.33;;;;;;;18.05;76.95;101647.66;5089641;28;20103;-74
2023/05/12 10:17:01;;;;;;;6.70;3.65;;;;;;;18.03;80.28;101638.97;5087894;28;20031;-72
2023/05/12 10:19:27;;;;;;;3.85;2.90;;;;;;;18.08;77.56;101646.38;5089763;28;20067;-72
2023/05/12 10:21:55;;;;;;;5.03;3.13;;;;;;;18.19;77.75;101651.00;5089315;28;20456;-72
2023/05/12 10:24:20;;;;;;;4.53;3.55;;;;;;;18.19;76.63;101632.09;5089224;28;20055;-72
2023/05/12 10:26:46;;;;;;;3.05;2.70;;;;;;;18.22;79.21;101642.44;5089356;28;20060;-72
2023/05/12 10:29:12;;;;;;;7.88;4.03;;;;;;;18.21;78.70;101646.22;5088103;28;20052;-72
2023/05/12 10:31:38;;;;;;;5.78;3.78;;;;;;;18.26;75.61;101645.50;5087903;28;20121;-72
2023/05/12 10:34:04;;;;;;;8.27;4.05;;;;;;;18.25;76.80;101650.09;5089237;28;20475;-73
2023/05/12 10:36:29;;;;;;;3.92;2.97;;;;;;;18.43;76.99;101651.09;5087952;28;20032;-73
2023/05/12 10:39:04;;;;;;;5.65;3.78;;;;;;;18.39;75.91;101648.03;5092435;28;20036;-72
2023/05/12 10:41:32;;;;;;;4.32;3.35;;;;;;;18.27;75.80;101644.47;5093246;28;20031;-73
2023/05/12 10:43:58;;;;;;;6.00;3.67;;;;;;;18.21;77.75;101665.13;5091524;28;20034;-72
2023/05/12 10:46:25;;;;;;;6.30;3.75;;;;;;;18.05;78.35;101653.06;5086970;28;20031;-71
2023/05/12 10:48:55;;;;;;;5.38;3.63;;;;;;;18.09;80.88;101656.13;5086510;28;20035;-72
2023/05/12 10:51:31;;;;;;;5.05;3.78;;;;;;;18.30;77.46;101668.31;5086944;28;20028;-73
2023/05/12 10:54:01;;;;;;;4.13;3.15;;;;;;;18.39;75.19;101662.38;5086402;28;20038;-75
2023/05/12 10:56:37;;;;;;;5.07;3.75;;;;;;;18.49;75.65;101667.19;5086384;28;20117;-71
2023/05/12 10:59:15;;;;;;;4.95;3.30;;;;;;;18.62;75.08;101658.09;5086227;28;20538;-74
2023/05/12 11:01:41;;;;;;;9.40;3.75;;;;;;;18.65;72.12;101665.72;5086208;28;20477;-72
2023/05/12 11:04:11;;;;;;;6.80;3.90;;;;;;;18.69;74.90;101652.59;5085498;28;20503;-73
2023/05/12 11:06:38;;;;;;;7.28;4.50;;;;;;;18.80;75.66;101670.75;5086409;28;20043;-72